sensor_id;sensor_type;location;lat;lon;timestamp;pressure;altitude;pressure_sealevel;temperature;humidity
64340;BME280;63709;53.258;-8.814;2024-01-16T00:01:24;101546.25;;;4.68;100.00
64340;BME280;63709;53.258;-8.814;2024-01-16T00:03:49;101537.47;;;4.68;100.00
64340;BME280;63709;53.258;-8.814;2024-01-16T00:06:15;101543.31;;;4.76;100.00
64340;BME280;63709;53.258;-8.814;2024-01-16T00:08:40;101539.06;;;4.72;100.00
64340;BME280;63709;53.258;-8.814;2024-01-16T00:11:05;101536.44;;;4.72;100.00
64340;BME280;63709;53.258;-8.814;2024-01-16T00:13:32;101531.69;;;4.80;100.00
64340;BME280;63709;53.258;-8.814;2024-01-16T00:15:58;101519.13;;;4.63;100.00
64340;BME280;63709;53.258;-8.814;2024-01-16T00:18:23;101516.53;;;4.61;100.00
64340;BME280;63709;53.258;-8.814;2024-01-16T00:20:48;101506.31;;;4.52;100.00
64340;BME280;63709;53.258;-8.814;2024-01-16T00:23:14;101501.22;;;4.48;100.00
64340;BME280;63709;53.258;-8.814;2024-01-16T00:25:39;101505.59;;;4.49;100.00
64340;BME280;63709;53.258;-8.814;2024-01-16T00:28:04;101495.13;;;4.46;100.00
64340;BME280;63709;53.258;-8.814;2024-01-16T00:30:30;101495.91;;;4.48;100.00
64340;BME280;63709;53.258;-8.814;2024-01-16T00:32:55;101488.06;;;4.46;100.00
64340;BME280;63709;53.258;-8.814;2024-01-16T00:35:20;101489.59;;;4.52;100.00
64340;BME280;63709;53.258;-8.814;2024-01-16T00:37:46;101479.44;;;4.41;100.00
64340;BME280;63709;53.258;-8.814;2024-01-16T00:40:11;101478.28;;;4.48;100.00
64340;BME280;63709;53.258;-8.814;2024-01-16T00:42:36;101462.94;;;4.80;100.00
64340;BME280;63709;53.258;-8.814;2024-01-16T00:45:02;101461.34;;;4.76;100.00
64340;BME280;63709;53.258;-8.814;2024-01-16T00:47:27;101449.47;;;4.86;100.00
64340;BME280;63709;53.258;-8.814;2024-01-16T00:49:52;101447.91;;;5.02;100.00
64340;BME280;63709;53.258;-8.814;2024-01-16T00:52:18;101448.88;;;5.00;100.00
64340;BME280;63709;53.258;-8.814;2024-01-16T00:54:44;101444.69;;;5.16;100.00
64340;BME280;63709;53.258;-8.814;2024-01-16T00:57:09;101437.06;;;5.08;100.00
64340;BME280;63709;53.258;-8.814;2024-01-16T00:59:34;101434.78;;;4.79;100.00
64340;BME280;63709;53.258;-8.814;2024-01-16T01:02:00;101426.88;;;4.77;100.00
64340;BME280;63709;53.258;-8.814;2024-01-16T01:04:25;101429.66;;;4.74;100.00
64340;BME280;63709;53.258;-8.814;2024-01-16T01:06:51;101427.47;;;4.64;100.00
64340;BME280;63709;53.258;-8.814;2024-01-16T01:09:16;101428.31;;;4.64;100.00
64340;BME280;63709;53.258;-8.814;2024-01-16T01:11:41;101425.19;;;4.54;100.00
64340;BME280;63709;53.258;-8.814;2024-01-16T01:14:07;101428.88;;;4.50;100.00
64340;BME280;63709;53.258;-8.814;2024-01-16T01:16:32;101427.72;;;4.57;100.00
64340;BME280;63709;53.258;-8.814;2024-01-16T01:18:57;101422.09;;;4.43;100.00
64340;BME280;63709;53.258;-8.814;2024-01-16T01:21:23;101421.19;;;4.44;100.00
64340;BME280;63709;53.258;-8.814;2024-01-16T01:23:48;101415.00;;;4.45;100.00
64340;BME280;63709;53.258;-8.814;2024-01-16T01:26:13;101405.28;;;4.68;100.00
64340;BME280;63709;53.258;-8.814;2024-01-16T01:28:39;101409.53;;;4.92;100.00
64340;BME280;63709;53.258;-8.814;2024-01-16T01:31:05;101405.59;;;4.80;100.00
64340;BME280;63709;53.258;-8.814;2024-01-16T01:33:30;101411.75;;;4.81;100.00
64340;BME280;63709;53.258;-8.814;2024-01-16T01:35:55;101406.38;;;5.04;100.00
64340;BME280;63709;53.258;-8.814;2024-01-16T01:38:21;101398.38;;;5.06;100.00
64340;BME280;63709;53.258;-8.814;2024-01-16T01:40:46;101408.22;;;5.02;100.00
64340;BME280;63709;53.258;-8.814;2024-01-16T01:43:19;101403.84;;;5.01;100.00
64340;BME280;63709;53.258;-8.814;2024-01-16T01:45:46;101396.72;;;5.24;100.00
64340;BME280;63709;53.258;-8.814;2024-01-16T01:48:12;101393.59;;;5.14;100.00
64340;BME280;63709;53.258;-8.814;2024-01-16T01:50:38;101394.25;;;4.99;100.00
64340;BME280;63709;53.258;-8.814;2024-01-16T01:53:03;101391.75;;;5.16;100.00
64340;BME280;63709;53.258;-8.814;2024-01-16T01:55:29;101382.28;;;4.90;100.00
64340;BME280;63709;53.258;-8.814;2024-01-16T01:57:54;101383.28;;;4.88;100.00
64340;BME280;63709;53.258;-8.814;2024-01-16T02:00:21;101377.44;;;4.79;100.00
64340;BME280;63709;53.258;-8.814;2024-01-16T02:02:47;101373.38;;;4.71;100.00
64340;BME280;63709;53.258;-8.814;2024-01-16T02:05:12;101372.53;;;4.70;100.00
64340;BME280;63709;53.258;-8.814;2024-01-16T02:07:38;101363.00;;;4.66;100.00
64340;BME280;63709;53.258;-8.814;2024-01-16T02:10:04;101360.66;;;4.60;100.00
64340;BME280;63709;53.258;-8.814;2024-01-16T02:12:29;101356.63;;;4.72;100.00
64340;BME280;63709;53.258;-8.814;2024-01-16T02:14:55;101358.94;;;4.79;100.00
64340;BME280;63709;53.258;-8.814;2024-01-16T02:17:20;101348.16;;;4.84;100.00
64340;BME280;63709;53.258;-8.814;2024-01-16T02:19:45;101347.38;;;5.02;100.00
64340;BME280;63709;53.258;-8.814;2024-01-16T02:22:12;101347.44;;;5.01;100.00
64340;BME280;63709;53.258;-8.814;2024-01-16T02:24:41;101344.72;;;5.02;100.00
64340;BME280;63709;53.258;-8.814;2024-01-16T02:27:06;101337.97;;;5.16;100.00
64340;BME280;63709;53.258;-8.814;2024-01-16T02:29:32;101335.50;;;5.11;100.00
64340;BME280;63709;53.258;-8.814;2024-01-16T02:31:57;101340.34;;;5.22;100.00
64340;BME280;63709;53.258;-8.814;2024-01-16T02:34:22;101343.84;;;5.22;100.00
64340;BME280;63709;53.258;-8.814;2024-01-16T02:36:48;101339.56;;;5.20;100.00
64340;BME280;63709;53.258;-8.814;2024-01-16T02:39:13;101345.63;;;5.22;100.00
64340;BME280;63709;53.258;-8.814;2024-01-16T02:41:38;101334.91;;;5.25;100.00
64340;BME280;63709;53.258;-8.814;2024-01-16T02:44:04;101335.44;;;5.33;100.00
64340;BME280;63709;53.258;-8.814;2024-01-16T02:46:29;101335.56;;;5.30;100.00
64340;BME280;63709;53.258;-8.814;2024-01-16T02:48:54;101326.19;;;5.23;100.00
64340;BME280;63709;53.258;-8.814;2024-01-16T02:51:19;101316.47;;;5.23;100.00
64340;BME280;63709;53.258;-8.814;2024-01-16T02:53:45;101324.47;;;5.22;100.00
64340;BME280;63709;53.258;-8.814;2024-01-16T02:56:10;101316.81;;;5.16;100.00
64340;BME280;63709;53.258;-8.814;2024-01-16T02:58:35;101315.03;;;5.16;100.00
64340;BME280;63709;53.258;-8.814;2024-01-16T03:01:01;101305.34;;;5.15;100.00
64340;BME280;63709;53.258;-8.814;2024-01-16T03:03:26;101306.38;;;5.13;100.00
64340;BME280;63709;53.258;-8.814;2024-01-16T03:05:52;101302.69;;;5.15;100.00
64340;BME280;63709;53.258;-8.814;2024-01-16T03:08:17;101299.28;;;5.13;100.00
64340;BME280;63709;53.258;-8.814;2024-01-16T03:10:42;101299.50;;;5.08;100.00
64340;BME280;63709;53.258;-8.814;2024-01-16T03:13:07;101296.97;;;5.05;100.00
64340;BME280;63709;53.258;-8.814;2024-01-16T03:15:33;101293.59;;;5.02;100.00
64340;BME280;63709;53.258;-8.814;2024-01-16T03:18:01;101288.53;;;4.97;100.00
64340;BME280;63709;53.258;-8.814;2024-01-16T03:20:26;101282.69;;;4.89;100.00
64340;BME280;63709;53.258;-8.814;2024-01-16T03:22:52;101281.09;;;4.85;100.00
64340;BME280;63709;53.258;-8.814;2024-01-16T03:25:17;101272.41;;;4.83;100.00
64340;BME280;63709;53.258;-8.814;2024-01-16T03:27:42;101273.25;;;4.83;100.00
64340;BME280;63709;53.258;-8.814;2024-01-16T03:30:09;101265.84;;;4.92;100.00
64340;BME280;63709;53.258;-8.814;2024-01-16T03:32:37;101263.66;;;4.81;100.00
64340;BME280;63709;53.258;-8.814;2024-01-16T03:35:03;101250.56;;;4.78;100.00
64340;BME280;63709;53.258;-8.814;2024-01-16T03:37:29;101253.44;;;4.73;100.00
64340;BME280;63709;53.258;-8.814;2024-01-16T03:39:54;101246.22;;;4.77;100.00
64340;BME280;63709;53.258;-8.814;2024-01-16T03:42:20;101244.50;;;4.76;100.00
64340;BME280;63709;53.258;-8.814;2024-01-16T03:44:45;101241.78;;;4.77;100.00
64340;BME280;63709;53.258;-8.814;2024-01-16T03:47:10;101236.91;;;4.68;100.00
64340;BME280;63709;53.258;-8.814;2024-01-16T03:49:35;101230.03;;;4.64;100.00
64340;BME280;63709;53.258;-8.814;2024-01-16T03:52:01;101227.25;;;4.67;100.00
64340;BME280;63709;53.258;-8.814;2024-01-16T03:54:26;101229.03;;;4.67;100.00
64340;BME280;63709;53.258;-8.814;2024-01-16T03:56:52;101223.47;;;4.73;100.00
64340;BME280;63709;53.258;-8.814;2024-01-16T03:59:18;101229.84;;;4.69;100.00
64340;BME280;63709;53.258;-8.814;2024-01-16T04:01:43;101233.06;;;4.75;100.00
64340;BME280;63709;53.258;-8.814;2024-01-16T04:04:10;101235.63;;;4.77;100.00
64340;BME280;63709;53.258;-8.814;2024-01-16T04:06:35;101229.41;;;4.78;100.00
64340;BME280;63709;53.258;-8.814;2024-01-16T04:09:01;101222.28;;;4.80;100.00
64340;BME280;63709;53.258;-8.814;2024-01-16T04:11:26;101210.13;;;4.76;100.00
64340;BME280;63709;53.258;-8.814;2024-01-16T04:13:51;101213.16;;;4.67;100.00
64340;BME280;63709;53.258;-8.814;2024-01-16T04:16:17;101203.75;;;4.61;100.00
64340;BME280;63709;53.258;-8.814;2024-01-16T04:18:42;101202.47;;;4.70;100.00
64340;BME280;63709;53.258;-8.814;2024-01-16T04:21:08;101199.03;;;4.68;100.00
64340;BME280;63709;53.258;-8.814;2024-01-16T04:23:33;101199.31;;;4.61;100.00
64340;BME280;63709;53.258;-8.814;2024-01-16T04:25:58;101200.09;;;4.64;100.00
64340;BME280;63709;53.258;-8.814;2024-01-16T04:28:24;101189.13;;;4.52;100.00
64340;BME280;63709;53.258;-8.814;2024-01-16T04:30:49;101185.28;;;4.59;100.00
64340;BME280;63709;53.258;-8.814;2024-01-16T04:33:14;101191.84;;;4.51;100.00
64340;BME280;63709;53.258;-8.814;2024-01-16T04:35:40;101187.19;;;4.56;100.00
64340;BME280;63709;53.258;-8.814;2024-01-16T04:38:05;101185.72;;;4.50;100.00
64340;BME280;63709;53.258;-8.814;2024-01-16T04:40:30;101183.44;;;4.61;100.00
64340;BME280;63709;53.258;-8.814;2024-01-16T04:42:56;101190.78;;;4.55;100.00
64340;BME280;63709;53.258;-8.814;2024-01-16T04:45:21;101182.59;;;4.61;100.00
64340;BME280;63709;53.258;-8.814;2024-01-16T04:47:46;101172.00;;;4.61;100.00
64340;BME280;63709;53.258;-8.814;2024-01-16T04:50:11;101172.06;;;4.59;100.00
64340;BME280;63709;53.258;-8.814;2024-01-16T04:52:37;101172.59;;;4.68;100.00
64340;BME280;63709;53.258;-8.814;2024-01-16T04:55:02;101167.97;;;4.73;100.00
64340;BME280;63709;53.258;-8.814;2024-01-16T04:57:28;101168.75;;;4.75;100.00
64340;BME280;63709;53.258;-8.814;2024-01-16T04:59:53;101159.59;;;4.82;100.00
64340;BME280;63709;53.258;-8.814;2024-01-16T05:02:18;101149.09;;;4.80;100.00
64340;BME280;63709;53.258;-8.814;2024-01-16T05:04:43;101139.59;;;4.76;100.00
64340;BME280;63709;53.258;-8.814;2024-01-16T05:07:09;101130.22;;;4.88;100.00
64340;BME280;63709;53.258;-8.814;2024-01-16T05:09:34;101135.66;;;4.85;100.00
64340;BME280;63709;53.258;-8.814;2024-01-16T05:12:00;101134.31;;;4.76;100.00
64340;BME280;63709;53.258;-8.814;2024-01-16T05:14:25;101135.88;;;4.80;100.00
64340;BME280;63709;53.258;-8.814;2024-01-16T05:16:51;101124.59;;;4.77;100.00
64340;BME280;63709;53.258;-8.814;2024-01-16T05:19:16;101123.28;;;4.85;100.00
64340;BME280;63709;53.258;-8.814;2024-01-16T05:21:42;101110.78;;;4.89;100.00
64340;BME280;63709;53.258;-8.814;2024-01-16T05:24:07;101110.00;;;4.87;100.00
64340;BME280;63709;53.258;-8.814;2024-01-16T05:26:33;101093.06;;;4.91;100.00
64340;BME280;63709;53.258;-8.814;2024-01-16T05:28:58;101089.94;;;4.83;100.00
64340;BME280;63709;53.258;-8.814;2024-01-16T05:31:23;101086.97;;;4.89;100.00
64340;BME280;63709;53.258;-8.814;2024-01-16T05:33:48;101082.63;;;4.88;100.00
64340;BME280;63709;53.258;-8.814;2024-01-16T05:36:14;101078.84;;;4.94;100.00
64340;BME280;63709;53.258;-8.814;2024-01-16T05:38:39;101077.78;;;4.98;100.00
64340;BME280;63709;53.258;-8.814;2024-01-16T05:41:04;101075.34;;;4.93;100.00
64340;BME280;63709;53.258;-8.814;2024-01-16T05:43:30;101068.56;;;4.88;100.00
64340;BME280;63709;53.258;-8.814;2024-01-16T05:45:55;101061.47;;;4.88;100.00
64340;BME280;63709;53.258;-8.814;2024-01-16T05:48:20;101062.19;;;4.92;100.00
64340;BME280;63709;53.258;-8.814;2024-01-16T05:50:45;101064.91;;;4.90;100.00
64340;BME280;63709;53.258;-8.814;2024-01-16T05:53:11;101059.53;;;4.92;100.00
64340;BME280;63709;53.258;-8.814;2024-01-16T05:55:36;101054.41;;;4.89;100.00
64340;BME280;63709;53.258;-8.814;2024-01-16T05:58:02;101044.97;;;4.83;100.00
64340;BME280;63709;53.258;-8.814;2024-01-16T06:00:27;101038.41;;;4.73;100.00
64340;BME280;63709;53.258;-8.814;2024-01-16T06:02:52;101045.34;;;4.75;100.00
64340;BME280;63709;53.258;-8.814;2024-01-16T06:05:18;101041.53;;;4.81;100.00
64340;BME280;63709;53.258;-8.814;2024-01-16T06:07:43;101033.91;;;4.75;100.00
64340;BME280;63709;53.258;-8.814;2024-01-16T06:10:08;101036.56;;;4.75;100.00
64340;BME280;63709;53.258;-8.814;2024-01-16T06:12:34;101038.53;;;4.70;100.00
64340;BME280;63709;53.258;-8.814;2024-01-16T06:14:59;101020.84;;;4.72;100.00
64340;BME280;63709;53.258;-8.814;2024-01-16T06:17:25;101026.50;;;4.64;100.00
64340;BME280;63709;53.258;-8.814;2024-01-16T06:19:50;101022.28;;;4.60;100.00
64340;BME280;63709;53.258;-8.814;2024-01-16T06:22:15;101019.97;;;4.52;100.00
64340;BME280;63709;53.258;-8.814;2024-01-16T06:24:40;101014.91;;;4.48;100.00
64340;BME280;63709;53.258;-8.814;2024-01-16T06:27:06;101014.00;;;4.49;100.00
64340;BME280;63709;53.258;-8.814;2024-01-16T06:29:31;101014.13;;;4.46;100.00
64340;BME280;63709;53.258;-8.814;2024-01-16T06:31:57;101004.91;;;4.54;100.00
64340;BME280;63709;53.258;-8.814;2024-01-16T06:34:22;101000.56;;;4.53;100.00
64340;BME280;63709;53.258;-8.814;2024-01-16T06:36:47;100993.19;;;4.41;100.00
64340;BME280;63709;53.258;-8.814;2024-01-16T06:39:12;100987.56;;;4.49;100.00
64340;BME280;63709;53.258;-8.814;2024-01-16T06:41:40;100999.97;;;4.47;100.00
64340;BME280;63709;53.258;-8.814;2024-01-16T06:44:05;100996.19;;;4.33;100.00
64340;BME280;63709;53.258;-8.814;2024-01-16T06:46:30;100984.72;;;4.34;100.00
64340;BME280;63709;53.258;-8.814;2024-01-16T06:48:56;100984.97;;;4.47;100.00
64340;BME280;63709;53.258;-8.814;2024-01-16T06:51:21;100968.97;;;4.50;100.00
64340;BME280;63709;53.258;-8.814;2024-01-16T06:53:46;100972.13;;;4.40;100.00
64340;BME280;63709;53.258;-8.814;2024-01-16T06:56:12;100969.91;;;4.49;100.00
64340;BME280;63709;53.258;-8.814;2024-01-16T06:58:37;100969.84;;;4.51;100.00
64340;BME280;63709;53.258;-8.814;2024-01-16T07:01:03;100974.13;;;4.53;100.00
64340;BME280;63709;53.258;-8.814;2024-01-16T07:03:28;100969.84;;;4.51;100.00
64340;BME280;63709;53.258;-8.814;2024-01-16T07:05:53;100970.91;;;4.47;100.00
64340;BME280;63709;53.258;-8.814;2024-01-16T07:08:19;100968.03;;;4.51;100.00
64340;BME280;63709;53.258;-8.814;2024-01-16T07:10:44;100963.69;;;4.50;100.00
64340;BME280;63709;53.258;-8.814;2024-01-16T07:13:09;100958.84;;;4.60;100.00
64340;BME280;63709;53.258;-8.814;2024-01-16T07:15:35;100957.09;;;4.59;100.00
64340;BME280;63709;53.258;-8.814;2024-01-16T07:18:00;100956.97;;;4.62;100.00
64340;BME280;63709;53.258;-8.814;2024-01-16T07:20:25;100958.38;;;4.69;100.00
64340;BME280;63709;53.258;-8.814;2024-01-16T07:22:50;100963.25;;;4.78;100.00
64340;BME280;63709;53.258;-8.814;2024-01-16T07:25:16;100955.06;;;4.83;100.00
64340;BME280;63709;53.258;-8.814;2024-01-16T07:27:42;100945.03;;;4.72;100.00
64340;BME280;63709;53.258;-8.814;2024-01-16T07:30:08;100952.44;;;4.83;100.00
64340;BME280;63709;53.258;-8.814;2024-01-16T07:32:33;100943.69;;;4.81;100.00
64340;BME280;63709;53.258;-8.814;2024-01-16T07:34:59;100941.06;;;4.81;100.00
64340;BME280;63709;53.258;-8.814;2024-01-16T07:37:24;100945.88;;;4.73;100.00
64340;BME280;63709;53.258;-8.814;2024-01-16T07:39:49;100942.75;;;4.82;100.00
64340;BME280;63709;53.258;-8.814;2024-01-16T07:42:15;100935.72;;;4.82;100.00
64340;BME280;63709;53.258;-8.814;2024-01-16T07:44:40;100939.22;;;4.83;100.00
64340;BME280;63709;53.258;-8.814;2024-01-16T07:47:05;100928.78;;;4.80;100.00
64340;BME280;63709;53.258;-8.814;2024-01-16T07:49:30;100934.81;;;4.65;100.00
64340;BME280;63709;53.258;-8.814;2024-01-16T07:51:56;100920.94;;;4.59;100.00
64340;BME280;63709;53.258;-8.814;2024-01-16T07:54:21;100913.63;;;4.47;100.00
64340;BME280;63709;53.258;-8.814;2024-01-16T07:56:47;100913.19;;;4.56;100.00
64340;BME280;63709;53.258;-8.814;2024-01-16T07:59:12;100918.53;;;4.55;100.00
64340;BME280;63709;53.258;-8.814;2024-01-16T08:01:37;100914.56;;;4.46;100.00
64340;BME280;63709;53.258;-8.814;2024-01-16T08:04:03;100923.34;;;4.47;100.00
64340;BME280;63709;53.258;-8.814;2024-01-16T08:06:28;100915.28;;;4.50;100.00
64340;BME280;63709;53.258;-8.814;2024-01-16T08:08:54;100921.25;;;4.53;100.00
64340;BME280;63709;53.258;-8.814;2024-01-16T08:11:19;100915.66;;;4.59;100.00
64340;BME280;63709;53.258;-8.814;2024-01-16T08:13:44;100912.88;;;4.63;100.00
64340;BME280;63709;53.258;-8.814;2024-01-16T08:16:10;100909.63;;;4.57;100.00
64340;BME280;63709;53.258;-8.814;2024-01-16T08:18:35;100906.59;;;4.65;100.00
64340;BME280;63709;53.258;-8.814;2024-01-16T08:21:01;100908.66;;;4.58;100.00
64340;BME280;63709;53.258;-8.814;2024-01-16T08:23:26;100903.88;;;4.67;100.00
64340;BME280;63709;53.258;-8.814;2024-01-16T08:25:51;100904.31;;;4.57;100.00
64340;BME280;63709;53.258;-8.814;2024-01-16T08:28:17;100901.19;;;4.49;100.00
64340;BME280;63709;53.258;-8.814;2024-01-16T08:30:42;100909.53;;;4.59;100.00
64340;BME280;63709;53.258;-8.814;2024-01-16T08:33:07;100899.59;;;4.64;100.00
64340;BME280;63709;53.258;-8.814;2024-01-16T08:35:33;100911.53;;;4.54;100.00
64340;BME280;63709;53.258;-8.814;2024-01-16T08:37:58;100897.47;;;4.53;100.00
64340;BME280;63709;53.258;-8.814;2024-01-16T08:40:23;100898.84;;;4.43;100.00
64340;BME280;63709;53.258;-8.814;2024-01-16T08:42:49;100889.06;;;4.45;100.00
64340;BME280;63709;53.258;-8.814;2024-01-16T08:45:19;100895.13;;;4.47;100.00
64340;BME280;63709;53.258;-8.814;2024-01-16T08:47:45;100892.94;;;4.38;100.00
64340;BME280;63709;53.258;-8.814;2024-01-16T08:50:10;100895.69;;;4.54;100.00
64340;BME280;63709;53.258;-8.814;2024-01-16T08:52:35;100893.03;;;4.54;100.00
64340;BME280;63709;53.258;-8.814;2024-01-16T08:55:01;100886.97;;;4.52;100.00
64340;BME280;63709;53.258;-8.814;2024-01-16T08:57:26;100894.63;;;4.75;100.00
64340;BME280;63709;53.258;-8.814;2024-01-16T08:59:52;100894.56;;;4.77;100.00
64340;BME280;63709;53.258;-8.814;2024-01-16T09:02:17;100881.03;;;4.83;100.00
64340;BME280;63709;53.258;-8.814;2024-01-16T09:04:42;100884.34;;;4.69;100.00
64340;BME280;63709;53.258;-8.814;2024-01-16T09:07:07;100883.22;;;4.75;100.00
64340;BME280;63709;53.258;-8.814;2024-01-16T09:09:33;100875.19;;;4.76;100.00
64340;BME280;63709;53.258;-8.814;2024-01-16T09:11:59;100878.38;;;4.83;100.00
64340;BME280;63709;53.258;-8.814;2024-01-16T09:14:24;100866.88;;;4.84;100.00
64340;BME280;63709;53.258;-8.814;2024-01-16T09:16:49;100863.44;;;4.82;100.00
64340;BME280;63709;53.258;-8.814;2024-01-16T09:19:15;100862.59;;;4.81;100.00
64340;BME280;63709;53.258;-8.814;2024-01-16T09:21:41;100855.28;;;4.87;100.00
64340;BME280;63709;53.258;-8.814;2024-01-16T09:24:06;100847.38;;;4.87;100.00
64340;BME280;63709;53.258;-8.814;2024-01-16T09:26:31;100845.72;;;4.84;100.00
64340;BME280;63709;53.258;-8.814;2024-01-16T09:28:57;100848.81;;;4.92;100.00
64340;BME280;63709;53.258;-8.814;2024-01-16T09:31:22;100842.84;;;4.89;100.00
64340;BME280;63709;53.258;-8.814;2024-01-16T09:33:47;100839.97;;;4.76;100.00
64340;BME280;63709;53.258;-8.814;2024-01-16T09:36:14;100839.97;;;4.76;100.00
64340;BME280;63709;53.258;-8.814;2024-01-16T09:38:39;100839.13;;;4.75;100.00
64340;BME280;63709;53.258;-8.814;2024-01-16T09:41:04;100833.59;;;4.80;100.00
64340;BME280;63709;53.258;-8.814;2024-01-16T09:43:30;100835.28;;;4.98;100.00
64340;BME280;63709;53.258;-8.814;2024-01-16T09:45:56;100838.63;;;5.02;100.00
64340;BME280;63709;53.258;-8.814;2024-01-16T09:48:26;100817.69;;;5.15;100.00
64340;BME280;63709;53.258;-8.814;2024-01-16T09:50:52;100825.16;;;5.24;100.00
64340;BME280;63709;53.258;-8.814;2024-01-16T09:53:18;100820.28;;;5.32;100.00
64340;BME280;63709;53.258;-8.814;2024-01-16T09:55:43;100816.81;;;5.31;100.00
64340;BME280;63709;53.258;-8.814;2024-01-16T09:58:09;100806.41;;;5.44;100.00
64340;BME280;63709;53.258;-8.814;2024-01-16T10:00:42;100801.72;;;5.49;100.00
64340;BME280;63709;53.258;-8.814;2024-01-16T10:03:09;100802.31;;;5.54;100.00
64340;BME280;63709;53.258;-8.814;2024-01-16T10:05:36;100792.00;;;5.66;100.00
64340;BME280;63709;53.258;-8.814;2024-01-16T10:08:01;100799.44;;;5.91;100.00
64340;BME280;63709;53.258;-8.814;2024-01-16T10:10:28;100793.66;;;6.16;100.00
64340;BME280;63709;53.258;-8.814;2024-01-16T10:12:53;100789.28;;;6.61;100.00
64340;BME280;63709;53.258;-8.814;2024-01-16T10:15:20;100782.34;;;7.02;100.00
64340;BME280;63709;53.258;-8.814;2024-01-16T10:17:46;100775.31;;;7.59;100.00
64340;BME280;63709;53.258;-8.814;2024-01-16T10:20:12;100766.91;;;8.20;100.00
64340;BME280;63709;53.258;-8.814;2024-01-16T10:22:52;100763.72;;;8.28;100.00
64340;BME280;63709;53.258;-8.814;2024-01-16T10:25:17;100748.09;;;8.89;100.00
64340;BME280;63709;53.258;-8.814;2024-01-16T10:27:45;100743.31;;;9.07;100.00
64340;BME280;63709;53.258;-8.814;2024-01-16T10:30:10;100728.38;;;9.30;100.00
64340;BME280;63709;53.258;-8.814;2024-01-16T10:32:37;100726.91;;;9.00;98.28
64340;BME280;63709;53.258;-8.814;2024-01-16T10:37:29;100721.31;;;9.41;98.70
64340;BME280;63709;53.258;-8.814;2024-01-16T10:39:54;100727.06;;;9.48;96.89
64340;BME280;63709;53.258;-8.814;2024-01-16T10:42:20;100721.47;;;9.64;94.70
64340;BME280;63709;53.258;-8.814;2024-01-16T10:44:54;100718.00;;;9.51;92.26
64340;BME280;63709;53.258;-8.814;2024-01-16T10:47:21;100717.00;;;9.64;91.25
64340;BME280;63709;53.258;-8.814;2024-01-16T10:49:46;100712.88;;;9.48;88.71
64340;BME280;63709;53.258;-8.814;2024-01-16T10:52:11;100700.16;;;9.27;87.29
64340;BME280;63709;53.258;-8.814;2024-01-16T10:54:39;100694.88;;;9.02;87.45
64340;BME280;63709;53.258;-8.814;2024-01-16T10:57:06;100693.06;;;8.89;87.73
64340;BME280;63709;53.258;-8.814;2024-01-16T10:59:31;100678.28;;;8.72;88.79
64340;BME280;63709;53.258;-8.814;2024-01-16T11:01:59;100688.78;;;8.48;90.51
64340;BME280;63709;53.258;-8.814;2024-01-16T11:04:27;100693.59;;;8.56;92.19
64340;BME280;63709;53.258;-8.814;2024-01-16T11:06:52;100692.94;;;8.40;92.81
64340;BME280;63709;53.258;-8.814;2024-01-16T11:09:18;100697.78;;;8.20;93.68
64340;BME280;63709;53.258;-8.814;2024-01-16T11:11:46;100690.53;;;8.22;93.88
64340;BME280;63709;53.258;-8.814;2024-01-16T11:14:15;100689.22;;;8.15;94.60
64340;BME280;63709;53.258;-8.814;2024-01-16T11:16:41;100689.31;;;8.01;95.47
64340;BME280;63709;53.258;-8.814;2024-01-16T11:19:10;100692.19;;;8.11;96.14
64340;BME280;63709;53.258;-8.814;2024-01-16T11:21:36;100687.66;;;8.13;97.99
64340;BME280;63709;53.258;-8.814;2024-01-16T11:24:02;100679.75;;;8.11;98.88
64340;BME280;63709;53.258;-8.814;2024-01-16T11:26:32;100680.16;;;7.65;99.95
64340;BME280;63709;53.258;-8.814;2024-01-16T11:28:58;100675.56;;;7.67;100.00
64340;BME280;63709;53.258;-8.814;2024-01-16T11:31:33;100682.66;;;7.54;100.00
64340;BME280;63709;53.258;-8.814;2024-01-16T11:33:59;100677.47;;;7.38;100.00
64340;BME280;63709;53.258;-8.814;2024-01-16T11:39:10;100675.59;;;7.12;100.00
64340;BME280;63709;53.258;-8.814;2024-01-16T11:41:47;100667.88;;;7.09;100.00
64340;BME280;63709;53.258;-8.814;2024-01-16T11:44:35;100663.09;;;7.14;100.00
64340;BME280;63709;53.258;-8.814;2024-01-16T11:47:01;100663.13;;;6.99;100.00
64340;BME280;63709;53.258;-8.814;2024-01-16T11:49:27;100654.78;;;7.20;100.00
64340;BME280;63709;53.258;-8.814;2024-01-16T11:51:53;100650.13;;;7.23;100.00
64340;BME280;63709;53.258;-8.814;2024-01-16T11:54:18;100657.09;;;7.39;100.00
64340;BME280;63709;53.258;-8.814;2024-01-16T12:02:04;100633.88;;;7.55;100.00
64340;BME280;63709;53.258;-8.814;2024-01-16T12:04:30;100630.59;;;7.51;100.00
64340;BME280;63709;53.258;-8.814;2024-01-16T12:06:59;100621.13;;;7.47;100.00
64340;BME280;63709;53.258;-8.814;2024-01-16T12:09:27;100617.50;;;7.48;100.00
64340;BME280;63709;53.258;-8.814;2024-01-16T12:11:56;100623.97;;;7.44;100.00
64340;BME280;63709;53.258;-8.814;2024-01-16T12:14:22;100612.69;;;7.41;100.00
64340;BME280;63709;53.258;-8.814;2024-01-16T12:16:48;100609.63;;;7.34;100.00
64340;BME280;63709;53.258;-8.814;2024-01-16T12:19:13;100612.00;;;7.24;100.00
64340;BME280;63709;53.258;-8.814;2024-01-16T12:21:42;100604.50;;;7.31;100.00
64340;BME280;63709;53.258;-8.814;2024-01-16T12:24:09;100599.00;;;7.34;100.00
64340;BME280;63709;53.258;-8.814;2024-01-16T12:26:34;100599.38;;;7.28;100.00
64340;BME280;63709;53.258;-8.814;2024-01-16T12:29:00;100592.72;;;7.35;100.00
64340;BME280;63709;53.258;-8.814;2024-01-16T12:31:26;100593.31;;;7.26;100.00
64340;BME280;63709;53.258;-8.814;2024-01-16T12:33:52;100589.28;;;7.33;100.00
64340;BME280;63709;53.258;-8.814;2024-01-16T12:36:17;100599.13;;;7.45;100.00
64340;BME280;63709;53.258;-8.814;2024-01-16T12:38:42;100594.44;;;7.49;100.00
64340;BME280;63709;53.258;-8.814;2024-01-16T12:41:08;100596.19;;;7.63;100.00
64340;BME280;63709;53.258;-8.814;2024-01-16T12:43:34;100584.34;;;7.68;100.00